Time;durP1;ratioP1;P1;durP2;ratioP2;P2;SDS_P1;SDS_P2;PMS_P1;PMS_P2;Temp;Humidity;BMP_temperature;BMP_pressure;BME280_temperature;BME280_humidity;BME280_pressure;Samples;Min_cycle;Max_cycle;Signal;HPM_P1;HPM_P2
2022/09/15 00:00:53;;;;;;;0.57;0.43;;;;;;;;;;5024584;28;20417;-71
2022/09/15 00:03:22;;;;;;;0.20;0.20;;;;;;;;;;5025560;28;20053;-72
2022/09/15 00:05:52;;;;;;;0.60;0.38;;;;;;;;;;5029536;28;20044;-70
2022/09/15 00:08:22;;;;;;;1.85;0.30;;;;;;;;;;5026808;28;20045;-67
2022/09/15 00:10:51;;;;;;;0.30;0.20;;;;;;;;;;5029135;28;20393;-72
2022/09/15 00:13:19;;;;;;;0.98;0.50;;;;;;;;;;5028182;28;20057;-70
2022/09/15 00:15:48;;;;;;;0.52;0.35;;;;;;;;;;5026743;28;20125;-70
2022/09/15 00:18:16;;;;;;;1.63;0.22;;;;;;;;;;5029002;28;20489;-70
2022/09/15 00:20:45;;;;;;;0.95;0.32;;;;;;;;;;5030219;28;20060;-70
2022/09/15 00:23:14;;;;;;;0.85;0.20;;;;;;;;;;5028473;28;20045;-70
2022/09/15 00:25:45;;;;;;;0.50;0.28;;;;;;;;;;5026982;28;20056;-70
2022/09/15 00:28:14;;;;;;;0.20;0.20;;;;;;;;;;5030094;28;20053;-70
2022/09/15 00:30:43;;;;;;;0.22;0.22;;;;;;;;;;5030467;28;20041;-70
2022/09/15 00:33:11;;;;;;;0.63;0.40;;;;;;;;;;5029037;28;20049;-70
2022/09/15 00:35:40;;;;;;;0.60;0.20;;;;;;;;;;5040295;28;20060;-71
2022/09/15 00:38:08;;;;;;;0.77;0.50;;;;;;;;;;5047235;28;20475;-71
2022/09/15 00:40:45;;;;;;;0.90;0.47;;;;;;;;;;5048783;28;20065;-70
2022/09/15 00:43:13;;;;;;;0.15;0.13;;;;;;;;;;5042873;28;21373;-70
2022/09/15 00:45:42;;;;;;;0.68;0.30;;;;;;;;;;5047356;28;20508;-71
2022/09/15 00:48:12;;;;;;;0.57;0.47;;;;;;;;;;5049007;28;20044;-70
2022/09/15 00:50:42;;;;;;;0.88;0.40;;;;;;;;;;5048486;28;20394;-71
2022/09/15 00:53:11;;;;;;;1.85;0.45;;;;;;;;;;5051573;28;20404;-71
2022/09/15 00:55:42;;;;;;;0.28;0.15;;;;;;;;;;5037761;28;20588;-71
2022/09/15 00:58:12;;;;;;;0.20;0.20;;;;;;;;;;5026428;28;20041;-70
2022/09/15 01:00:44;;;;;;;0.55;0.50;;;;;;;;;;5029051;28;20042;-70
2022/09/15 01:03:12;;;;;;;0.60;0.55;;;;;;;;;;5028501;28;20056;-70
2022/09/15 01:05:43;;;;;;;1.45;0.40;;;;;;;;;;5039971;28;20512;-72
2022/09/15 01:08:14;;;;;;;0.40;0.30;;;;;;;;;;5048839;28;20037;-70
2022/09/15 01:10:43;;;;;;;0.38;0.38;;;;;;;;;;5048471;28;20052;-72
2022/09/15 01:13:14;;;;;;;0.20;0.20;;;;;;;;;;5053422;22;20045;-87
2022/09/15 01:15:47;;;;;;;0.40;0.30;;;;;;;;;;5024052;28;20061;-88
2022/09/15 01:18:19;;;;;;;0.40;0.32;;;;;;;;;;5023115;28;20046;-87
2022/09/15 01:20:55;;;;;;;0.10;0.10;;;;;;;;;;5027184;28;20049;-87
2022/09/15 01:23:41;;;;;;;0.35;0.35;;;;;;;;;;5030094;28;20053;-88
2022/09/15 01:26:24;;;;;;;0.28;0.28;;;;;;;;;;5014732;28;20041;-88
2022/09/15 01:29:13;;;;;;;0.43;0.40;;;;;;;;;;5027209;28;20045;-87
2022/09/15 01:34:32;;;;;;;0.45;0.40;;;;;;;;;;5020958;28;20084;-87
2022/09/15 01:37:02;;;;;;;0.80;0.70;;;;;;;;;;5031473;28;20535;-88
2022/09/15 01:39:33;;;;;;;0.50;0.35;;;;;;;;;;5024413;28;20052;-87
2022/09/15 01:42:04;;;;;;;0.60;0.17;;;;;;;;;;5028270;28;20045;-87
2022/09/15 01:44:34;;;;;;;0.93;0.50;;;;;;;;;;5027396;28;20116;-88
2022/09/15 01:47:06;;;;;;;2.03;0.20;;;;;;;;;;5027991;28;20045;-88
2022/09/15 01:49:37;;;;;;;0.55;0.25;;;;;;;;;;5027398;28;20474;-87
2022/09/15 01:52:06;;;;;;;0.35;0.25;;;;;;;;;;5030561;28;20057;-87
2022/09/15 01:54:35;;;;;;;0.32;0.20;;;;;;;;;;5027794;28;20505;-90
2022/09/15 01:57:04;;;;;;;0.70;0.32;;;;;;;;;;5025187;28;20053;-88
2022/09/15 01:59:32;;;;;;;0.10;0.10;;;;;;;;;;5027253;28;20053;-87
2022/09/15 02:02:04;;;;;;;0.20;0.20;;;;;;;;;;5027181;28;20045;-87
2022/09/15 02:04:37;;;;;;;0.88;0.13;;;;;;;;;;5028119;28;20044;-88
2022/09/15 02:07:10;;;;;;;2.03;0.40;;;;;;;;;;5023417;28;20049;-88
2022/09/15 02:09:40;;;;;;;0.20;0.20;;;;;;;;;;5026464;28;20105;-87
2022/09/15 02:12:13;;;;;;;0.50;0.20;;;;;;;;;;5029306;28;20057;-87
2022/09/15 02:14:47;;;;;;;0.25;0.25;;;;;;;;;;5029143;28;20061;-88
2022/09/15 02:17:17;;;;;;;1.35;0.65;;;;;;;;;;5028222;28;20065;-89
2022/09/15 02:19:49;;;;;;;0.30;0.25;;;;;;;;;;5026806;28;20053;-88
2022/09/15 02:22:22;;;;;;;0.47;0.45;;;;;;;;;;5023302;28;20046;-88
2022/09/15 02:24:53;;;;;;;0.52;0.25;;;;;;;;;;5028006;28;20053;-88
2022/09/15 02:27:23;;;;;;;0.65;0.40;;;;;;;;;;5028058;28;20072;-88
2022/09/15 02:29:53;;;;;;;1.00;0.38;;;;;;;;;;5023161;28;20049;-88
2022/09/15 02:32:23;;;;;;;1.08;0.47;;;;;;;;;;5027187;28;20049;-89
2022/09/15 02:34:54;;;;;;;0.75;0.10;;;;;;;;;;5022698;28;20078;-87
2022/09/15 02:37:25;;;;;;;0.55;0.35;;;;;;;;;;5028503;28;20041;-87
2022/09/15 02:39:54;;;;;;;0.20;0.20;;;;;;;;;;5025951;28;20051;-88
2022/09/15 02:42:24;;;;;;;0.43;0.28;;;;;;;;;;5028768;28;20447;-88
2022/09/15 02:44:52;;;;;;;0.55;0.52;;;;;;;;;;5028271;28;20059;-90
2022/09/15 02:47:21;;;;;;;0.57;0.28;;;;;;;;;;5025685;28;20140;-88
2022/09/15 02:49:49;;;;;;;0.52;0.15;;;;;;;;;;5026713;28;20046;-88
2022/09/15 02:52:19;;;;;;;2.30;0.20;;;;;;;;;;5029369;28;20042;-87
2022/09/15 02:54:49;;;;;;;0.93;0.30;;;;;;;;;;5025808;28;20049;-88
2022/09/15 02:57:17;;;;;;;0.52;0.30;;;;;;;;;;5027941;28;20448;-88
2022/09/15 03:02:28;;;;;;;0.65;0.20;;;;;;;;;;5017659;28;20038;-88
2022/09/15 03:04:57;;;;;;;0.10;0.10;;;;;;;;;;5023980;28;20050;-87
2022/09/15 03:07:27;;;;;;;0.55;0.30;;;;;;;;;;5022133;28;20133;-88
2022/09/15 03:09:55;;;;;;;0.50;0.15;;;;;;;;;;5027687;28;20505;-89
2022/09/15 03:12:24;;;;;;;1.02;0.68;;;;;;;;;;5028283;28;20052;-87
2022/09/15 03:14:52;;;;;;;0.65;0.38;;;;;;;;;;5025671;28;20050;-87
2022/09/15 03:17:20;;;;;;;0.75;0.40;;;;;;;;;;5026449;28;20050;-88
2022/09/15 03:19:49;;;;;;;0.63;0.20;;;;;;;;;;5017434;28;20042;-89
2022/09/15 03:22:17;;;;;;;0.65;0.30;;;;;;;;;;5026084;28;20409;-88
2022/09/15 03:24:47;;;;;;;0.68;0.40;;;;;;;;;;5021331;28;20054;-87
2022/09/15 03:27:15;;;;;;;2.20;0.40;;;;;;;;;;5033756;28;20053;-88
2022/09/15 03:29:44;;;;;;;0.63;0.63;;;;;;;;;;5028306;28;20053;-88
2022/09/15 03:32:12;;;;;;;0.22;0.20;;;;;;;;;;5028264;28;20037;-88
2022/09/15 03:34:42;;;;;;;0.35;0.30;;;;;;;;;;5031109;28;20248;-88
2022/09/15 03:37:10;;;;;;;0.88;0.63;;;;;;;;;;5029958;28;20986;-88
2022/09/15 03:39:39;;;;;;;1.40;0.30;;;;;;;;;;5031650;28;20524;-87
2022/09/15 03:42:09;;;;;;;0.30;0.20;;;;;;;;;;5032295;28;20049;-88
2022/09/15 03:44:37;;;;;;;0.00;0.00;;;;;;;;;;5021138;28;20124;-88
2022/09/15 03:47:06;;;;;;;0.30;0.30;;;;;;;;;;5029865;28;20497;-87
2022/09/15 03:49:34;;;;;;;1.15;0.52;;;;;;;;;;5026978;28;20104;-88
2022/09/15 03:52:02;;;;;;;0.25;0.15;;;;;;;;;;5032226;28;20045;-87
2022/09/15 03:54:31;;;;;;;0.20;0.20;;;;;;;;;;5026269;28;20508;-87
2022/09/15 03:56:59;;;;;;;2.28;0.30;;;;;;;;;;5029791;28;20498;-89
2022/09/15 03:59:29;;;;;;;2.25;0.17;;;;;;;;;;5028782;28;20045;-88
2022/09/15 04:01:57;;;;;;;0.82;0.30;;;;;;;;;;5028684;28;20048;-87
2022/09/15 04:04:26;;;;;;;0.30;0.28;;;;;;;;;;5030923;28;20646;-87
2022/09/15 04:06:54;;;;;;;1.70;0.40;;;;;;;;;;5031366;28;20037;-88
2022/09/15 04:09:22;;;;;;;0.10;0.10;;;;;;;;;;5031212;28;20049;-87
2022/09/15 04:11:50;;;;;;;0.75;0.20;;;;;;;;;;5027521;28;20096;-88
2022/09/15 04:14:19;;;;;;;0.30;0.30;;;;;;;;;;5026418;28;20057;-89
2022/09/15 04:16:48;;;;;;;0.15;0.08;;;;;;;;;;5033534;28;20049;-87
2022/09/15 04:19:17;;;;;;;0.20;0.20;;;;;;;;;;5045816;28;20056;-89
2022/09/15 04:21:46;;;;;;;0.38;0.20;;;;;;;;;;5046558;28;20046;-88
2022/09/15 04:24:14;;;;;;;0.20;0.20;;;;;;;;;;5049912;28;20041;-87
2022/09/15 04:26:43;;;;;;;0.38;0.38;;;;;;;;;;5044641;28;21878;-86
2022/09/15 04:29:13;;;;;;;2.50;0.57;;;;;;;;;;5047208;28;20041;-90
2022/09/15 04:31:41;;;;;;;0.70;0.32;;;;;;;;;;5045552;28;20051;-89
2022/09/15 04:34:11;;;;;;;0.30;0.22;;;;;;;;;;5043426;28;20049;-88
2022/09/15 04:36:39;;;;;;;0.30;0.22;;;;;;;;;;5044973;28;20080;-88
2022/09/15 04:39:08;;;;;;;0.35;0.20;;;;;;;;;;5032875;28;20042;-88
2022/09/15 04:41:36;;;;;;;0.47;0.30;;;;;;;;;;5026684;28;20045;-87
2022/09/15 04:44:04;;;;;;;1.38;0.30;;;;;;;;;;5036279;28;20041;-88
2022/09/15 04:46:33;;;;;;;0.50;0.32;;;;;;;;;;5030766;28;20069;-86
2022/09/15 04:49:01;;;;;;;0.30;0.17;;;;;;;;;;5033440;28;20049;-87
2022/09/15 04:51:31;;;;;;;0.13;0.10;;;;;;;;;;5029641;28;20056;-87
2022/09/15 04:53:59;;;;;;;0.15;0.15;;;;;;;;;;5030559;28;20049;-87
2022/09/15 04:56:28;;;;;;;0.30;0.30;;;;;;;;;;5025805;28;20042;-89
2022/09/15 04:58:57;;;;;;;1.13;0.25;;;;;;;;;;5031023;28;20364;-87
2022/09/15 05:01:32;;;;;;;0.30;0.30;;;;;;;;;;5029018;28;20067;-87
2022/09/15 05:04:02;;;;;;;3.63;0.40;;;;;;;;;;5025320;28;20071;-87
2022/09/15 05:06:33;;;;;;;0.00;0.00;;;;;;;;;;5026789;28;20085;-86
2022/09/15 05:09:02;;;;;;;0.10;0.10;;;;;;;;;;5023999;28;20052;-87
2022/09/15 05:11:37;;;;;;;0.65;0.25;;;;;;;;;;5025440;28;20053;-87
2022/09/15 05:14:05;;;;;;;0.10;0.10;;;;;;;;;;5021305;28;20523;-87
2022/09/15 05:16:33;;;;;;;0.13;0.10;;;;;;;;;;5019465;28;20053;-88
2022/09/15 05:19:03;;;;;;;0.60;0.20;;;;;;;;;;5024309;28;20060;-88
2022/09/15 05:21:33;;;;;;;0.17;0.17;;;;;;;;;;5024775;28;20049;-88
2022/09/15 05:24:01;;;;;;;1.77;0.20;;;;;;;;;;5023924;28;20083;-88
2022/09/15 05:26:30;;;;;;;0.65;0.57;;;;;;;;;;5019246;28;20059;-87
2022/09/15 05:28:59;;;;;;;0.00;0.00;;;;;;;;;;5016219;28;20069;-88
2022/09/15 05:31:29;;;;;;;0.22;0.22;;;;;;;;;;5027388;28;20175;-87
2022/09/15 05:33:58;;;;;;;0.32;0.25;;;;;;;;;;5027433;28;20077;-83
2022/09/15 05:36:26;;;;;;;0.00;0.00;;;;;;;;;;5034808;28;20064;-84
2022/09/15 05:38:56;;;;;;;1.27;0.52;;;;;;;;;;5029303;28;20064;-83
2022/09/15 05:41:26;;;;;;;0.32;0.20;;;;;;;;;;5028887;28;20052;-84
2022/09/15 05:43:55;;;;;;;0.40;0.25;;;;;;;;;;5030074;28;20420;-83
2022/09/15 05:46:25;;;;;;;0.10;0.10;;;;;;;;;;5029566;28;20042;-84
2022/09/15 05:48:54;;;;;;;0.20;0.20;;;;;;;;;;5024101;28;20045;-84
2022/09/15 05:51:22;;;;;;;0.22;0.17;;;;;;;;;;5022103;28;20498;-83
2022/09/15 05:53:51;;;;;;;0.43;0.40;;;;;;;;;;5032427;28;20090;-83
2022/09/15 05:56:21;;;;;;;0.10;0.10;;;;;;;;;;5031584;28;20053;-83
2022/09/15 05:58:49;;;;;;;1.15;0.35;;;;;;;;;;5031099;28;20049;-83
2022/09/15 06:01:19;;;;;;;0.20;0.20;;;;;;;;;;5029807;28;20055;-84
2022/09/15 06:03:48;;;;;;;1.80;0.40;;;;;;;;;;5032106;28;20413;-85
2022/09/15 06:06:16;;;;;;;0.20;0.20;;;;;;;;;;5031415;28;20068;-83
2022/09/15 06:08:47;;;;;;;0.30;0.17;;;;;;;;;;5027450;28;20494;-83
2022/09/15 06:11:23;;;;;;;0.20;0.20;;;;;;;;;;5022779;28;20059;-85
2022/09/15 06:13:51;;;;;;;0.32;0.10;;;;;;;;;;5031293;28;20060;-84
2022/09/15 06:16:20;;;;;;;0.20;0.10;;;;;;;;;;5030365;28;20045;-83
2022/09/15 06:18:50;;;;;;;0.10;0.10;;;;;;;;;;5030049;28;20084;-83
2022/09/15 06:21:19;;;;;;;0.17;0.15;;;;;;;;;;5030484;28;20160;-86
2022/09/15 06:23:47;;;;;;;0.95;0.60;;;;;;;;;;5031128;28;20409;-85
2022/09/15 06:26:19;;;;;;;0.57;0.35;;;;;;;;;;5030262;28;20081;-84
2022/09/15 06:28:50;;;;;;;0.08;0.08;;;;;;;;;;5028488;28;20049;-83
2022/09/15 06:31:19;;;;;;;0.05;0.05;;;;;;;;;;5028741;28;20421;-83
2022/09/15 06:33:49;;;;;;;0.28;0.25;;;;;;;;;;5031127;28;20056;-83
2022/09/15 06:36:19;;;;;;;0.00;0.00;;;;;;;;;;5027722;28;20405;-82
2022/09/15 06:38:48;;;;;;;0.40;0.35;;;;;;;;;;5027776;28;20060;-82
2022/09/15 06:41:16;;;;;;;0.30;0.30;;;;;;;;;;5017682;28;20058;-84
2022/09/15 06:43:47;;;;;;;0.20;0.10;;;;;;;;;;5021472;28;20060;-82
2022/09/15 06:46:18;;;;;;;3.70;0.20;;;;;;;;;;5025688;28;20092;-82
2022/09/15 06:48:47;;;;;;;2.65;0.30;;;;;;;;;;5026256;28;20100;-82
2022/09/15 06:51:17;;;;;;;0.10;0.10;;;;;;;;;;5024033;28;20049;-82
2022/09/15 06:53:46;;;;;;;0.57;0.17;;;;;;;;;;5019672;28;20054;-82
2022/09/15 06:56:17;;;;;;;0.30;0.10;;;;;;;;;;5020095;28;20045;-82
2022/09/15 06:58:48;;;;;;;0.70;0.10;;;;;;;;;;5024057;28;20375;-82
2022/09/15 07:01:21;;;;;;;0.10;0.10;;;;;;;;;;5023190;28;20049;-83
2022/09/15 07:03:50;;;;;;;0.95;0.57;;;;;;;;;;5022571;28;20048;-82
2022/09/15 07:06:18;;;;;;;0.57;0.20;;;;;;;;;;5023540;28;20137;-82
2022/09/15 07:08:47;;;;;;;0.10;0.08;;;;;;;;;;5026212;28;20509;-82
2022/09/15 07:11:16;;;;;;;3.33;0.17;;;;;;;;;;5026261;28;20521;-83
2022/09/15 07:13:44;;;;;;;0.57;0.35;;;;;;;;;;5024759;28;20572;-83
2022/09/15 07:16:13;;;;;;;0.70;0.70;;;;;;;;;;5015974;28;20418;-82
2022/09/15 07:18:43;;;;;;;0.35;0.10;;;;;;;;;;5022648;28;20049;-82
2022/09/15 07:21:13;;;;;;;0.20;0.20;;;;;;;;;;5030235;28;20046;-82
2022/09/15 07:23:41;;;;;;;0.13;0.13;;;;;;;;;;5029314;28;20060;-83
2022/09/15 07:26:10;;;;;;;0.17;0.17;;;;;;;;;;5029311;28;20041;-82
2022/09/15 07:28:40;;;;;;;0.25;0.17;;;;;;;;;;5028603;28;20045;-83
2022/09/15 07:31:10;;;;;;;0.20;0.10;;;;;;;;;;5029446;28;20141;-83
2022/09/15 07:33:38;;;;;;;0.22;0.10;;;;;;;;;;5022099;28;20525;-83
2022/09/15 07:36:09;;;;;;;0.10;0.10;;;;;;;;;;5028275;28;20059;-83
2022/09/15 07:38:40;;;;;;;0.88;0.77;;;;;;;;;;5027221;28;20493;-82
2022/09/15 07:41:09;;;;;;;0.25;0.17;;;;;;;;;;5022685;28;20136;-83
2022/09/15 07:43:38;;;;;;;0.40;0.20;;;;;;;;;;5030691;28;20091;-82
2022/09/15 07:46:07;;;;;;;0.25;0.25;;;;;;;;;;5028006;28;20551;-83
2022/09/15 07:48:36;;;;;;;0.88;0.40;;;;;;;;;;5026146;28;20138;-81
2022/09/15 07:51:04;;;;;;;0.10;0.05;;;;;;;;;;5031473;28;20124;-83
2022/09/15 07:53:34;;;;;;;0.47;0.47;;;;;;;;;;5026382;28;20133;-81
2022/09/15 07:56:02;;;;;;;0.20;0.20;;;;;;;;;;5025219;28;20045;-82
2022/09/15 07:58:33;;;;;;;0.15;0.15;;;;;;;;;;5023678;28;20563;-83
2022/09/15 08:01:02;;;;;;;0.32;0.15;;;;;;;;;;5026882;28;20120;-83
2022/09/15 08:03:31;;;;;;;0.10;0.08;;;;;;;;;;5029368;28;20089;-83
2022/09/15 08:06:00;;;;;;;0.30;0.20;;;;;;;;;;5028923;28;20079;-83
2022/09/15 08:08:29;;;;;;;0.28;0.28;;;;;;;;;;5027845;28;20153;-82
2022/09/15 08:10:59;;;;;;;0.10;0.10;;;;;;;;;;5029858;28;20088;-82
2022/09/15 08:13:29;;;;;;;0.30;0.10;;;;;;;;;;5028854;28;20156;-82
2022/09/15 08:15:57;;;;;;;0.15;0.13;;;;;;;;;;5031044;28;20884;-82
2022/09/15 08:18:26;;;;;;;0.40;0.28;;;;;;;;;;5032785;28;20077;-82
2022/09/15 08:20:55;;;;;;;3.28;0.50;;;;;;;;;;5032321;28;20045;-82
2022/09/15 08:23:23;;;;;;;0.13;0.13;;;;;;;;;;5032889;28;20084;-82
2022/09/15 08:25:52;;;;;;;0.20;0.20;;;;;;;;;;5027494;28;20053;-82
2022/09/15 08:28:22;;;;;;;0.30;0.20;;;;;;;;;;5030507;28;20049;-82
2022/09/15 08:30:50;;;;;;;0.20;0.20;;;;;;;;;;5031266;28;20049;-83
2022/09/15 08:33:19;;;;;;;0.15;0.13;;;;;;;;;;5029600;28;20045;-82
2022/09/15 08:35:48;;;;;;;0.25;0.20;;;;;;;;;;5027719;28;20111;-83
2022/09/15 08:38:17;;;;;;;0.50;0.30;;;;;;;;;;5030572;28;20073;-82
2022/09/15 08:40:46;;;;;;;0.20;0.10;;;;;;;;;;5028910;28;20132;-82
2022/09/15 08:43:18;;;;;;;0.25;0.15;;;;;;;;;;5027313;28;20387;-81
2022/09/15 08:45:50;;;;;;;0.10;0.10;;;;;;;;;;5027398;28;20095;-83
2022/09/15 08:48:21;;;;;;;0.22;0.20;;;;;;;;;;5029164;28;20041;-82
2022/09/15 08:50:51;;;;;;;0.60;0.20;;;;;;;;;;5032124;28;20053;-82
2022/09/15 08:53:20;;;;;;;0.65;0.30;;;;;;;;;;5032323;28;20049;-81
2022/09/15 08:55:50;;;;;;;0.20;0.20;;;;;;;;;;5028701;28;20508;-82
2022/09/15 08:58:19;;;;;;;0.20;0.20;;;;;;;;;;5031640;28;20213;-83
2022/09/15 09:00:51;;;;;;;0.70;0.47;;;;;;;;;;5031529;28;20046;-82
2022/09/15 09:03:34;;;;;;;0.13;0.10;;;;;;;;;;5031503;28;20577;-82
2022/09/15 09:06:11;;;;;;;2.97;0.25;;;;;;;;;;5027177;28;20571;-82
2022/09/15 09:08:52;;;;;;;3.03;0.30;;;;;;;;;;5030382;28;20574;-83
2022/09/15 09:11:25;;;;;;;0.28;0.28;;;;;;;;;;5031096;28;20512;-82
2022/09/15 09:13:59;;;;;;;1.15;0.40;;;;;;;;;;5031470;28;20092;-83
2022/09/15 09:16:37;;;;;;;0.43;0.15;;;;;;;;;;5031090;28;20053;-82
2022/09/15 09:19:11;;;;;;;0.40;0.20;;;;;;;;;;5029482;28;20136;-82
2022/09/15 09:21:42;;;;;;;0.10;0.10;;;;;;;;;;5032113;28;20049;-83
2022/09/15 09:24:15;;;;;;;0.52;0.10;;;;;;;;;;5030670;28;20140;-83
2022/09/15 09:26:44;;;;;;;0.75;0.55;;;;;;;;;;5031207;28;20199;-82
2022/09/15 09:29:17;;;;;;;0.45;0.40;;;;;;;;;;5027752;28;20119;-82
2022/09/15 09:31:49;;;;;;;0.15;0.10;;;;;;;;;;5029130;28;20049;-82
2022/09/15 09:34:21;;;;;;;1.13;0.32;;;;;;;;;;5031220;28;20061;-83
2022/09/15 09:36:53;;;;;;;1.00;0.57;;;;;;;;;;5030625;28;20053;-83
2022/09/15 09:39:22;;;;;;;0.88;0.35;;;;;;;;;;5031403;28;20292;-81
2022/09/15 09:41:51;;;;;;;0.25;0.25;;;;;;;;;;5030517;28;20523;-83
2022/09/15 09:44:20;;;;;;;0.52;0.25;;;;;;;;;;5030882;28;20084;-83
2022/09/15 09:46:50;;;;;;;4.10;0.55;;;;;;;;;;5029966;28;20107;-83
2022/09/15 09:49:21;;;;;;;1.90;0.15;;;;;;;;;;5030404;28;20784;-82
2022/09/15 09:51:51;;;;;;;1.25;0.40;;;;;;;;;;5029453;28;20049;-83
2022/09/15 09:54:21;;;;;;;0.50;0.22;;;;;;;;;;5026886;28;20469;-82
2022/09/15 09:56:50;;;;;;;1.60;0.30;;;;;;;;;;5027135;28;20051;-83
2022/09/15 09:59:39;;;;;;;0.95;0.65;;;;;;;;;;5029862;28;20045;-83
2022/09/15 10:02:19;;;;;;;0.90;0.40;;;;;;;;;;5025895;28;20049;-82
2022/09/15 10:04:48;;;;;;;0.20;0.20;;;;;;;;;;5030280;28;20461;-84
2022/09/15 10:07:19;;;;;;;1.52;0.30;;;;;;;;;;5029642;28;20749;-82
2022/09/15 10:09:52;;;;;;;0.20;0.20;;;;;;;;;;5030951;28;20077;-83
2022/09/15 10:12:25;;;;;;;0.10;0.10;;;;;;;;;;5030172;28;20046;-82
2022/09/15 10:14:55;;;;;;;1.10;0.35;;;;;;;;;;5023965;28;20146;-82
2022/09/15 10:17:26;;;;;;;0.80;0.22;;;;;;;;;;5026748;28;20063;-83
2022/09/15 10:19:55;;;;;;;0.68;0.30;;;;;;;;;;5031094;28;20049;-83
2022/09/15 10:22:25;;;;;;;0.20;0.20;;;;;;;;;;5030670;28;20049;-82
2022/09/15 10:24:54;;;;;;;0.43;0.20;;;;;;;;;;5027822;28;20041;-82
2022/09/15 10:27:30;;;;;;;0.70;0.32;;;;;;;;;;5029063;28;20077;-82
2022/09/15 10:30:16;;;;;;;0.13;0.13;;;;;;;;;;5026819;28;20100;-83
2022/09/15 10:32:47;;;;;;;0.70;0.28;;;;;;;;;;5030317;28;20049;-82
2022/09/15 10:35:17;;;;;;;0.20;0.20;;;;;;;;;;5029128;28;20175;-82
2022/09/15 10:37:52;;;;;;;0.65;0.30;;;;;;;;;;5029623;28;20048;-82
2022/09/15 10:40:29;;;;;;;1.10;0.15;;;;;;;;;;5025691;28;20057;-87
2022/09/15 10:42:59;;;;;;;0.30;0.30;;;;;;;;;;5026779;28;20064;-84
2022/09/15 10:45:33;;;;;;;0.32;0.20;;;;;;;;;;5029697;28;20057;-83
2022/09/15 10:48:19;;;;;;;0.40;0.30;;;;;;;;;;5027325;28;20061;-83
2022/09/15 10:50:54;;;;;;;0.20;0.10;;;;;;;;;;5028138;28;20085;-83
2022/09/15 10:53:30;;;;;;;0.35;0.20;;;;;;;;;;5024496;28;20069;-84
2022/09/15 10:56:01;;;;;;;1.20;0.30;;;;;;;;;;5028442;28;20540;-83
2022/09/15 10:58:41;;;;;;;0.68;0.10;;;;;;;;;;5030206;28;20045;-83
2022/09/15 11:01:30;;;;;;;0.17;0.17;;;;;;;;;;5029775;28;20060;-83
2022/09/15 11:04:08;;;;;;;0.50;0.20;;;;;;;;;;5030039;28;20439;-83
2022/09/15 11:06:42;;;;;;;0.10;0.10;;;;;;;;;;5026219;28;20041;-83
2022/09/15 11:09:15;;;;;;;0.35;0.28;;;;;;;;;;5021420;28;20057;-84
2022/09/15 11:11:46;;;;;;;0.20;0.20;;;;;;;;;;5030342;28;20050;-84
2022/09/15 11:14:21;;;;;;;0.75;0.40;;;;;;;;;;5029219;28;20468;-83
2022/09/15 11:16:50;;;;;;;;;;;;;;;;;;5025118;28;20049;-84
2022/09/15 11:19:26;;;;;;;0.20;0.20;;;;;;;;;;5030929;28;19931;-82
2022/09/15 11:21:57;;;;;;;0.08;0.03;;;;;;;;;;5028176;28;20042;-83
2022/09/15 11:24:39;;;;;;;0.30;0.10;;;;;;;;;;5028075;28;20047;-83
2022/09/15 11:27:13;;;;;;;0.10;0.10;;;;;;;;;;5029623;28;20081;-84
2022/09/15 11:29:52;;;;;;;0.60;0.10;;;;;;;;;;5029772;28;20049;-84
2022/09/15 11:32:23;;;;;;;0.45;0.40;;;;;;;;;;5028974;28;20129;-84
2022/09/15 11:34:55;;;;;;;0.55;0.38;;;;;;;;;;5029290;28;20050;-84
2022/09/15 11:37:27;;;;;;;0.52;0.30;;;;;;;;;;5028348;28;20072;-83
2022/09/15 11:39:59;;;;;;;0.30;0.30;;;;;;;;;;5022029;28;20401;-82
2022/09/15 11:42:31;;;;;;;0.52;0.30;;;;;;;;;;5025766;28;20151;-83
2022/09/15 11:45:00;;;;;;;0.25;0.25;;;;;;;;;;5026446;28;20049;-83
2022/09/15 11:47:31;;;;;;;0.08;0.08;;;;;;;;;;5022469;28;20068;-84
2022/09/15 11:50:02;;;;;;;1.75;0.35;;;;;;;;;;5026410;28;20049;-84
2022/09/15 11:52:45;;;;;;;0.22;0.22;;;;;;;;;;5030581;28;20056;-84
2022/09/15 11:55:23;;;;;;;0.40;0.30;;;;;;;;;;5029267;28;20049;-84
2022/09/15 11:57:55;;;;;;;0.10;0.10;;;;;;;;;;5024160;28;20678;-84
2022/09/15 12:00:23;;;;;;;0.32;0.20;;;;;;;;;;5027637;28;20049;-85
2022/09/15 12:02:55;;;;;;;0.20;0.20;;;;;;;;;;5023702;28;20148;-84
2022/09/15 12:05:27;;;;;;;0.10;0.10;;;;;;;;;;5027762;28;20076;-84
2022/09/15 12:08:00;;;;;;;0.82;0.52;;;;;;;;;;5027581;28;20049;-84
2022/09/15 12:10:31;;;;;;;0.13;0.13;;;;;;;;;;5030986;28;20470;-84
2022/09/15 12:13:00;;;;;;;0.52;0.20;;;;;;;;;;5028476;28;20069;-85
2022/09/15 12:15:29;;;;;;;0.30;0.22;;;;;;;;;;5028090;28;20596;-85
2022/09/15 12:18:02;;;;;;;0.20;0.17;;;;;;;;;;5026157;28;20544;-84
2022/09/15 12:20:45;;;;;;;0.32;0.32;;;;;;;;;;5027503;28;20050;-83
2022/09/15 12:23:19;;;;;;;0.30;0.30;;;;;;;;;;5031562;28;20057;-84
2022/09/15 12:25:58;;;;;;;0.80;0.27;;;;;;;;;;5028421;28;20064;-84
2022/09/15 12:28:28;;;;;;;0.52;0.30;;;;;;;;;;5029195;28;20292;-83
2022/09/15 12:31:19;;;;;;;0.43;0.43;;;;;;;;;;5028294;28;20051;-83
2022/09/15 12:33:54;;;;;;;0.45;0.30;;;;;;;;;;5019069;28;20509;-83
2022/09/15 12:36:43;;;;;;;0.50;0.40;;;;;;;;;;5026413;28;20581;-85
2022/09/15 12:39:32;;;;;;;0.50;0.30;;;;;;;;;;5027764;28;20049;-84
2022/09/15 12:42:14;;;;;;;0.55;0.17;;;;;;;;;;5025560;28;20054;-83
2022/09/15 12:44:44;;;;;;;0.52;0.30;;;;;;;;;;5029241;28;20132;-84
2022/09/15 12:47:20;;;;;;;0.10;0.10;;;;;;;;;;5026262;28;20068;-82
2022/09/15 12:49:51;;;;;;;0.45;0.32;;;;;;;;;;5026786;28;20135;-84
2022/09/15 12:52:21;;;;;;;0.17;0.17;;;;;;;;;;5022975;28;20053;-83
2022/09/15 12:54:53;;;;;;;0.13;0.10;;;;;;;;;;5030640;28;20065;-82
2022/09/15 12:57:25;;;;;;;0.30;0.22;;;;;;;;;;5029913;28;20142;-82
2022/09/15 13:00:13;;;;;;;0.20;0.20;;;;;;;;;;5025017;28;20144;-85
2022/09/15 13:02:43;;;;;;;0.90;0.50;;;;;;;;;;5030924;28;20061;-81
2022/09/15 13:05:13;;;;;;;3.45;0.35;;;;;;;;;;5028607;28;20641;-83
2022/09/15 13:07:55;;;;;;;2.17;0.30;;;;;;;;;;5028069;28;20049;-86
2022/09/15 13:10:28;;;;;;;0.50;0.30;;;;;;;;;;5031357;28;20049;-82
2022/09/15 13:13:06;;;;;;;0.82;0.40;;;;;;;;;;5028222;28;20054;-86
2022/09/15 13:15:37;;;;;;;0.38;0.20;;;;;;;;;;5025697;28;20136;-87
2022/09/15 13:18:06;;;;;;;0.40;0.20;;;;;;;;;;5026651;28;20080;-86
2022/09/15 13:20:37;;;;;;;0.38;0.38;;;;;;;;;;5027402;28;20421;-83
2022/09/15 13:23:08;;;;;;;0.10;0.10;;;;;;;;;;5027394;28;20042;-81
2022/09/15 13:25:37;;;;;;;0.60;0.28;;;;;;;;;;5028693;28;20456;-81
2022/09/15 13:28:10;;;;;;;0.20;0.20;;;;;;;;;;5018181;28;20053;-82
2022/09/15 13:30:41;;;;;;;0.10;0.10;;;;;;;;;;5028663;28;20076;-82
2022/09/15 13:33:18;;;;;;;0.10;0.10;;;;;;;;;;5030315;28;20124;-82
2022/09/15 13:35:56;;;;;;;0.20;0.20;;;;;;;;;;5029412;28;20041;-81
2022/09/15 13:38:48;;;;;;;0.15;0.10;;;;;;;;;;5022738;28;20128;-81
2022/09/15 13:41:24;;;;;;;0.20;0.20;;;;;;;;;;5029650;28;20421;-81
2022/09/15 13:44:08;;;;;;;0.30;0.20;;;;;;;;;;5029208;28;20108;-82
2022/09/15 13:46:44;;;;;;;0.30;0.30;;;;;;;;;;4992869;28;20494;-81
2022/09/15 13:49:22;;;;;;;0.38;0.20;;;;;;;;;;5025626;28;20054;-83
2022/09/15 13:51:58;;;;;;;0.32;0.25;;;;;;;;;;5028411;28;20135;-81
2022/09/15 13:54:27;;;;;;;2.97;0.40;;;;;;;;;;5024625;28;20045;-81
2022/09/15 13:56:59;;;;;;;0.30;0.30;;;;;;;;;;5030110;28;20136;-81
2022/09/15 13:59:30;;;;;;;0.35;0.25;;;;;;;;;;5026699;28;20137;-81
2022/09/15 14:02:00;;;;;;;4.13;0.28;;;;;;;;;;5027508;28;20112;-82
2022/09/15 14:04:30;;;;;;;0.55;0.20;;;;;;;;;;5028590;28;20111;-82
2022/09/15 14:07:00;;;;;;;0.68;0.30;;;;;;;;;;5026239;28;20130;-80
2022/09/15 14:09:32;;;;;;;0.70;0.30;;;;;;;;;;5028579;28;20119;-82
2022/09/15 14:12:03;;;;;;;0.08;0.08;;;;;;;;;;5030116;28;20572;-82
2022/09/15 14:14:35;;;;;;;0.75;0.35;;;;;;;;;;5026480;28;20100;-83
2022/09/15 14:17:05;;;;;;;0.20;0.20;;;;;;;;;;5024597;28;20136;-81
2022/09/15 14:19:35;;;;;;;0.15;0.10;;;;;;;;;;5024406;28;20413;-82
2022/09/15 14:22:18;;;;;;;1.38;0.50;;;;;;;;;;5023578;28;20045;-82
2022/09/15 14:24:47;;;;;;;0.13;0.13;;;;;;;;;;5027373;28;20196;-82
2022/09/15 14:27:20;;;;;;;0.45;0.10;;;;;;;;;;5026746;28;20041;-81
2022/09/15 14:29:53;;;;;;;4.13;0.30;;;;;;;;;;5026174;28;20064;-83
2022/09/15 14:32:23;;;;;;;0.90;0.20;;;;;;;;;;5026876;28;21182;-82
2022/09/15 14:34:52;;;;;;;0.20;0.10;;;;;;;;;;5028129;28;20120;-83
2022/09/15 14:37:22;;;;;;;0.20;0.20;;;;;;;;;;5023881;28;20053;-82
2022/09/15 14:39:54;;;;;;;0.55;0.30;;;;;;;;;;5030902;28;20129;-81
2022/09/15 14:42:28;;;;;;;0.63;0.15;;;;;;;;;;5029567;28;20060;-82
2022/09/15 14:44:57;;;;;;;0.43;0.10;;;;;;;;;;5028151;28;20482;-83
2022/09/15 14:47:46;;;;;;;0.10;0.10;;;;;;;;;;5027537;28;20060;-82
2022/09/15 14:50:16;;;;;;;0.25;0.20;;;;;;;;;;5030067;28;20055;-82
2022/09/15 14:52:47;;;;;;;0.10;0.10;;;;;;;;;;5024206;28;20056;-83
2022/09/15 14:55:19;;;;;;;0.70;0.28;;;;;;;;;;5023796;28;20045;-82
2022/09/15 14:57:50;;;;;;;1.23;0.35;;;;;;;;;;5028768;28;20045;-82
2022/09/15 15:00:22;;;;;;;0.95;0.38;;;;;;;;;;5026729;28;20132;-82
2022/09/15 15:02:57;;;;;;;0.82;0.08;;;;;;;;;;5024409;28;20053;-82
2022/09/15 15:05:28;;;;;;;0.20;0.10;;;;;;;;;;5024876;28;20404;-81
2022/09/15 15:07:57;;;;;;;1.00;0.20;;;;;;;;;;5024664;28;20145;-82
2022/09/15 15:10:27;;;;;;;0.17;0.10;;;;;;;;;;5028629;28;20061;-82
2022/09/15 15:13:03;;;;;;;0.28;0.17;;;;;;;;;;5026410;28;20061;-82